createdAt,value
2023-03-15T00:01:10.011Z,65.38
2023-03-15T00:04:13.250Z,66.03
2023-03-15T00:07:17.488Z,64.98
2023-03-15T00:10:20.553Z,67.22
2023-03-15T00:13:23.579Z,65.17
2023-03-15T00:16:27.345Z,63.97
2023-03-15T00:19:30.175Z,65.35
2023-03-15T00:22:34.615Z,65.25
2023-03-15T00:25:38.045Z,66.46
2023-03-15T00:28:41.719Z,66.60
2023-03-15T00:31:44.596Z,66.54
2023-03-15T00:34:49.205Z,67.17
2023-03-15T00:37:56.295Z,66.40
2023-03-15T00:40:59.372Z,66.77
2023-03-15T00:44:02.120Z,66.26
2023-03-15T00:47:05.157Z,68.11
2023-03-15T00:50:08.435Z,66.32
2023-03-15T00:53:12.984Z,67.27
2023-03-15T00:56:18.254Z,66.46
2023-03-15T00:59:21.972Z,66.18
2023-03-15T01:02:24.869Z,65.89
2023-03-15T01:05:27.727Z,65.10
2023-03-15T01:08:31.961Z,65.90
2023-03-15T01:11:34.695Z,66.39
2023-03-15T01:14:39.105Z,66.21
2023-03-15T01:17:42.291Z,66.88
2023-03-15T01:20:45.936Z,66.40
2023-03-15T01:23:50.642Z,65.73
2023-03-15T01:26:53.316Z,65.54
2023-03-15T01:29:56.738Z,65.25
2023-03-15T01:32:59.560Z,66.10
2023-03-15T01:36:08.293Z,65.32
2023-03-15T01:39:12.607Z,64.84
2023-03-15T01:42:15.879Z,65.87
2023-03-15T01:46:01.123Z,65.57
2023-03-15T01:49:08.663Z,66.70
2023-03-15T01:52:14.733Z,63.66
2023-03-15T01:55:21.604Z,64.86
2023-03-15T01:58:27.501Z,66.57
2023-03-15T02:01:31.285Z,65.54
2023-03-15T02:04:39.520Z,66.07
2023-03-15T02:07:50.973Z,66.34
2023-03-15T02:10:58.820Z,65.76
2023-03-15T02:14:03.923Z,65.82
2023-03-15T02:17:06.924Z,66.11
2023-03-15T02:20:27.566Z,67.30
2023-03-15T02:23:32.430Z,69.53
2023-03-15T02:26:43.672Z,67.72
2023-03-15T02:29:47.957Z,66.98
2023-03-15T02:32:51.254Z,67.86
2023-03-15T02:35:54.407Z,66.64
2023-03-15T02:38:57.927Z,67.75
2023-03-15T02:42:01.807Z,67.06
2023-03-15T02:45:07.171Z,67.63
2023-03-15T02:48:11.887Z,67.28
2023-03-15T02:51:21.006Z,68.01
2023-03-15T02:54:23.893Z,67.51
2023-03-15T02:57:26.675Z,67.24
2023-03-15T03:00:31.118Z,67.40
2023-03-15T03:03:33.866Z,67.81
2023-03-15T03:06:36.718Z,67.21
2023-03-15T03:09:39.634Z,66.50
2023-03-15T03:12:42.607Z,68.26
2023-03-15T03:15:46.875Z,67.80
2023-03-15T03:18:50.070Z,66.99
2023-03-15T03:21:53.725Z,68.43
2023-03-15T03:24:56.546Z,67.57
2023-03-15T03:27:59.465Z,68.37
2023-03-15T03:31:03.679Z,67.57
2023-03-15T03:34:06.653Z,67.20
2023-03-15T03:37:09.658Z,67.08
2023-03-15T03:40:13.797Z,66.34
2023-03-15T03:43:16.598Z,65.92
2023-03-15T03:46:21.134Z,67.71
2023-03-15T03:49:23.854Z,67.80
2023-03-15T03:52:26.774Z,68.08
2023-03-15T03:55:29.476Z,66.46
2023-03-15T03:58:32.573Z,67.98
2023-03-15T04:01:36.827Z,66.00
2023-03-15T04:04:41.364Z,67.81
2023-03-15T04:07:44.329Z,67.66
2023-03-15T04:10:47.037Z,67.98
2023-03-15T04:13:49.896Z,67.27
2023-03-15T04:16:54.692Z,67.31
2023-03-15T04:19:58.068Z,67.34
2023-03-15T04:23:00.908Z,66.62
2023-03-15T04:26:03.939Z,67.67
2023-03-15T04:29:07.174Z,66.45
2023-03-15T04:32:11.979Z,66.17
2023-03-15T04:35:14.955Z,63.36
2023-03-15T04:38:17.840Z,65.54
2023-03-15T04:41:20.763Z,66.47
2023-03-15T04:44:26.630Z,65.70
2023-03-15T04:47:31.238Z,64.98
2023-03-15T04:50:33.996Z,65.32
2023-03-15T04:53:38.667Z,63.73
2023-03-15T04:56:42.162Z,65.62
2023-03-15T04:59:44.862Z,64.91
2023-03-15T05:02:54.736Z,65.45
2023-03-15T05:05:57.820Z,65.41
2023-03-15T05:09:00.809Z,64.32
2023-03-15T05:12:04.145Z,63.25
2023-03-15T05:15:08.118Z,65.36
2023-03-15T05:18:12.530Z,63.97
2023-03-15T05:21:15.384Z,64.67
2023-03-15T05:24:18.227Z,64.79
2023-03-15T05:27:21.111Z,63.66
2023-03-15T05:30:23.865Z,64.76
2023-03-15T05:33:28.086Z,64.49
2023-03-15T05:36:31.034Z,65.33
2023-03-15T05:39:34.824Z,65.37
2023-03-15T05:42:37.768Z,66.74
2023-03-15T05:45:41.274Z,66.94
2023-03-15T05:48:45.355Z,67.13
2023-03-15T05:51:49.226Z,65.47
2023-03-15T05:54:52.192Z,65.41
2023-03-15T05:57:54.956Z,64.81
2023-03-15T06:00:57.680Z,66.58
2023-03-15T06:04:01.822Z,67.12
2023-03-15T06:07:05.113Z,65.97
2023-03-15T06:10:09.166Z,65.52
2023-03-15T06:13:12.207Z,66.01
2023-03-15T06:16:14.975Z,66.89
2023-03-15T06:19:19.189Z,66.40
2023-03-15T06:22:23.091Z,66.93
2023-03-15T06:25:26.016Z,67.39
2023-03-15T06:28:28.881Z,66.99
2023-03-15T06:31:31.573Z,66.89
2023-03-15T06:34:35.722Z,67.22
2023-03-15T06:37:39.122Z,67.69
2023-03-15T06:40:41.858Z,68.02
2023-03-15T06:43:44.591Z,67.81
2023-03-15T06:46:47.365Z,69.31
2023-03-15T06:49:51.586Z,68.54
2023-03-15T06:52:54.350Z,69.51
2023-03-15T06:55:57.035Z,69.58
2023-03-15T06:59:00.343Z,69.12
2023-03-15T07:02:03.451Z,69.71
2023-03-15T07:05:08.785Z,70.31
2023-03-15T07:08:11.655Z,69.80
2023-03-15T07:11:14.812Z,70.13
2023-03-15T07:14:17.598Z,70.56
2023-03-15T07:17:20.379Z,69.61
2023-03-15T07:20:24.577Z,70.55
2023-03-15T07:23:27.446Z,69.49
2023-03-15T07:26:30.226Z,69.29
2023-03-15T07:29:33.213Z,69.57
2023-03-15T07:32:38.993Z,68.34
2023-03-15T07:35:43.355Z,69.48
2023-03-15T07:38:46.152Z,68.74
2023-03-15T07:41:48.824Z,69.05
2023-03-15T07:44:51.675Z,69.00
2023-03-15T07:47:56.632Z,68.59
2023-03-15T07:51:00.821Z,68.25
2023-03-15T07:54:03.572Z,67.87
2023-03-15T07:57:06.684Z,66.88
2023-03-15T08:00:13.649Z,66.20
2023-03-15T08:03:16.473Z,66.76
2023-03-15T08:06:20.863Z,66.45
2023-03-15T08:09:23.656Z,67.54
2023-03-15T08:12:26.702Z,66.49
2023-03-15T08:15:29.390Z,66.52
2023-03-15T08:18:32.257Z,65.42
2023-03-15T08:21:36.412Z,65.58
2023-03-15T08:24:39.411Z,65.00
2023-03-15T08:27:43.108Z,64.98
2023-03-15T08:30:45.933Z,63.80
2023-03-15T08:33:49.318Z,63.54
2023-03-15T08:36:53.510Z,62.89
2023-03-15T08:40:01.117Z,63.22
2023-03-15T08:43:04.180Z,63.70
2023-03-15T08:46:07.030Z,63.53
2023-03-15T08:49:10.037Z,64.68
2023-03-15T08:52:14.772Z,64.56
2023-03-15T08:55:18.833Z,62.90
2023-03-15T08:58:21.819Z,63.68
2023-03-15T09:01:25.019Z,62.75
2023-03-15T09:04:27.790Z,63.54
2023-03-15T09:07:32.814Z,62.83
2023-03-15T09:10:35.604Z,63.00
2023-03-15T09:13:39.172Z,63.27
2023-03-15T09:16:42.005Z,61.89
2023-03-15T09:19:44.738Z,61.24
2023-03-15T09:22:53.990Z,61.87
2023-03-15T09:25:56.738Z,61.21
2023-03-15T09:28:59.431Z,60.16
2023-03-15T09:32:02.621Z,60.31
2023-03-15T09:35:06.990Z,60.02
2023-03-15T09:38:11.679Z,60.58
2023-03-15T09:41:20.958Z,59.77
2023-03-15T09:44:35.937Z,58.74
2023-03-15T09:47:47.574Z,58.00
2023-03-15T09:50:54.887Z,56.64
2023-03-15T09:54:03.369Z,54.12
2023-03-15T09:57:11.482Z,54.47
2023-03-15T10:00:18.847Z,54.26
2023-03-15T10:03:30.233Z,54.83
2023-03-15T10:06:36.510Z,54.47
2023-03-15T10:09:42.007Z,52.68
2023-03-15T10:12:51.513Z,52.09
2023-03-15T10:16:05.141Z,52.31
2023-03-15T10:19:16.325Z,53.51
2023-03-15T10:22:27.671Z,51.27
2023-03-15T10:25:33.321Z,50.03
2023-03-15T10:28:38.483Z,49.89
2023-03-15T10:31:44.832Z,51.81
2023-03-15T10:34:51.030Z,53.73
2023-03-15T10:37:53.899Z,51.94
2023-03-15T10:41:00.684Z,52.51
2023-03-15T10:44:06.727Z,49.15
2023-03-15T10:47:23.658Z,47.03
2023-03-15T10:50:29.104Z,47.73
2023-03-15T10:53:31.977Z,46.08
2023-03-15T10:56:45.179Z,46.88
2023-03-15T10:59:58.352Z,45.70
2023-03-15T11:03:06.824Z,42.49
2023-03-15T11:06:21.786Z,43.73
2023-03-15T11:09:26.670Z,45.18
2023-03-15T11:12:33.429Z,46.32
2023-03-15T11:15:36.370Z,47.58
2023-03-15T11:18:47.402Z,46.97
2023-03-15T11:21:52.451Z,45.53
2023-03-15T11:24:56.513Z,44.15
2023-03-15T11:28:01.645Z,44.39
2023-03-15T11:31:06.332Z,44.65
2023-03-15T11:34:14.174Z,43.34
2023-03-15T11:37:21.592Z,43.04
2023-03-15T11:40:32.747Z,41.42
2023-03-15T11:43:49.073Z,40.50
2023-03-15T11:46:58.353Z,41.45
2023-03-15T11:50:01.228Z,41.95
2023-03-15T11:53:06.905Z,43.95
2023-03-15T11:56:25.169Z,42.82
2023-03-15T11:59:32.606Z,42.22
2023-03-15T12:02:38.470Z,41.04
2023-03-15T12:05:46.595Z,40.83
2023-03-15T12:08:51.623Z,40.52
2023-03-15T12:11:58.454Z,38.98
2023-03-15T12:15:07.399Z,39.18
2023-03-15T12:18:15.823Z,39.92
2023-03-15T12:21:23.232Z,39.69
2023-03-15T12:24:29.063Z,40.44
2023-03-15T12:27:32.128Z,38.79
2023-03-15T12:30:42.264Z,38.55
2023-03-15T12:33:48.154Z,37.69
2023-03-15T12:36:54.390Z,37.22
2023-03-15T12:40:05.324Z,38.11
2023-03-15T12:43:09.376Z,37.41
2023-03-15T12:46:45.590Z,35.93
2023-03-15T12:49:50.215Z,35.48
2023-03-15T12:52:53.895Z,36.12
2023-03-15T12:56:07.959Z,35.30
2023-03-15T12:59:36.691Z,35.22
2023-03-15T13:02:47.014Z,35.36
2023-03-15T13:06:04.501Z,34.25
2023-03-15T13:09:19.860Z,36.01
2023-03-15T13:12:30.293Z,35.55
2023-03-15T13:15:40.624Z,35.86
2023-03-15T13:18:55.246Z,36.11
2023-03-15T13:22:12.073Z,36.98
2023-03-15T13:25:22.727Z,38.84
2023-03-15T13:28:37.276Z,45.18
2023-03-15T13:31:40.578Z,48.64
2023-03-15T13:34:46.308Z,52.00
2023-03-15T13:37:50.629Z,53.77
2023-03-15T13:40:54.688Z,55.96
2023-03-15T13:43:59.541Z,55.66
2023-03-15T13:47:02.380Z,55.21
2023-03-15T13:50:07.055Z,53.92
2023-03-15T13:53:20.032Z,53.43
2023-03-15T13:56:37.401Z,53.82
2023-03-15T13:59:48.907Z,52.86
2023-03-15T14:02:55.532Z,51.44
2023-03-15T14:06:00.201Z,49.72
2023-03-15T14:09:11.562Z,49.76
2023-03-15T14:12:23.267Z,49.00
2023-03-15T14:15:28.697Z,46.71
2023-03-15T14:18:34.990Z,45.56
2023-03-15T14:21:38.637Z,44.03
2023-03-15T14:24:45.801Z,44.83
2023-03-15T14:27:48.766Z,44.23
2023-03-15T14:30:59.514Z,45.04
2023-03-15T14:34:10.057Z,43.53
2023-03-15T14:37:31.335Z,41.75
2023-03-15T14:40:38.537Z,42.46
2023-03-15T14:43:41.704Z,42.01
2023-03-15T14:46:44.434Z,42.63
2023-03-15T14:49:47.644Z,42.20
2023-03-15T14:52:51.815Z,42.33
2023-03-15T14:55:56.170Z,41.95
2023-03-15T14:58:59.249Z,40.66
2023-03-15T15:02:03.009Z,41.09
2023-03-15T15:05:17.783Z,41.63
2023-03-15T15:08:23.308Z,41.52
2023-03-15T15:11:28.550Z,41.66
2023-03-15T15:14:31.621Z,42.63
2023-03-15T15:17:34.738Z,41.85
2023-03-15T15:20:37.862Z,42.36
2023-03-15T15:23:57.000Z,41.81
2023-03-15T15:27:02.082Z,41.91
2023-03-15T15:30:05.732Z,41.49
2023-03-15T15:33:08.604Z,42.05
2023-03-15T15:36:15.972Z,41.40
2023-03-15T15:39:23.025Z,43.85
2023-03-15T15:42:27.394Z,43.58
2023-03-15T15:45:34.334Z,43.63
2023-03-15T15:48:37.116Z,44.05
2023-03-15T15:51:45.641Z,44.28
2023-03-15T15:54:48.500Z,47.81
2023-03-15T15:57:54.991Z,53.50
2023-03-15T16:00:57.859Z,58.32
2023-03-15T16:04:01.961Z,62.16
2023-03-15T16:07:05.004Z,63.60
2023-03-15T16:10:09.588Z,67.80
2023-03-15T16:13:14.385Z,67.84
2023-03-15T16:16:18.686Z,67.99
2023-03-15T16:19:21.495Z,65.96
2023-03-15T16:22:27.130Z,67.42
2023-03-15T16:25:33.774Z,68.75
2023-03-15T16:28:37.805Z,69.34
2023-03-15T16:31:40.558Z,69.69
2023-03-15T16:34:45.213Z,69.22
2023-03-15T16:37:48.445Z,70.16
2023-03-15T16:40:53.069Z,70.56
2023-03-15T16:43:57.535Z,70.18
2023-03-15T16:47:00.427Z,70.00
2023-03-15T16:50:03.735Z,70.91
2023-03-15T16:53:10.431Z,70.38
2023-03-15T16:56:15.551Z,70.52
2023-03-15T16:59:20.387Z,71.13
2023-03-15T17:02:25.601Z,71.09
2023-03-15T17:05:28.728Z,70.83
2023-03-15T17:08:31.584Z,71.17
2023-03-15T17:11:34.408Z,71.71
2023-03-15T17:14:38.949Z,72.70
2023-03-15T17:17:41.695Z,71.81
2023-03-15T17:20:44.883Z,72.26
2023-03-15T17:23:48.634Z,72.38
2023-03-15T17:26:52.168Z,71.99
2023-03-15T17:29:56.396Z,73.49
2023-03-15T17:32:59.229Z,72.80
2023-03-15T17:36:04.637Z,72.87
2023-03-15T17:39:10.527Z,72.76
2023-03-15T17:42:15.711Z,73.01
2023-03-15T17:45:22.176Z,73.24
2023-03-15T17:48:25.662Z,72.33
2023-03-15T17:51:31.401Z,72.77
2023-03-15T17:54:34.771Z,72.38
2023-03-15T17:57:40.378Z,72.70
2023-03-15T18:00:48.379Z,72.06
2023-03-15T18:03:52.356Z,72.73
2023-03-15T18:06:55.446Z,72.18
2023-03-15T18:09:59.774Z,72.51
2023-03-15T18:13:03.461Z,73.18
2023-03-15T18:16:08.167Z,73.39
2023-03-15T18:19:10.978Z,72.72
2023-03-15T18:22:17.675Z,72.61
2023-03-15T18:25:24.187Z,74.40
2023-03-15T18:28:27.348Z,73.47
2023-03-15T18:31:32.398Z,73.59
2023-03-15T18:34:36.377Z,73.90
2023-03-15T18:37:39.926Z,73.03
2023-03-15T18:40:43.713Z,72.84
2023-03-15T18:43:49.620Z,73.07
2023-03-15T18:46:54.250Z,72.45
2023-03-15T18:50:04.465Z,73.11
2023-03-15T18:53:12.696Z,74.17
2023-03-15T18:56:19.181Z,73.79
2023-03-15T18:59:24.168Z,73.71
2023-03-15T19:02:30.323Z,72.95
2023-03-15T19:05:36.111Z,73.92
2023-03-15T19:08:39.244Z,72.73
2023-03-15T19:11:43.681Z,73.24
2023-03-15T19:14:46.435Z,72.93
2023-03-15T19:17:52.636Z,73.92
2023-03-15T19:20:55.542Z,72.25
2023-03-15T19:23:58.441Z,73.65
2023-03-15T19:27:01.586Z,73.08
2023-03-15T19:30:08.885Z,73.11
2023-03-15T19:33:14.993Z,73.85
2023-03-15T19:36:18.093Z,73.27
2023-03-15T19:39:21.073Z,73.48
2023-03-15T19:42:23.763Z,73.64
2023-03-15T19:45:26.514Z,73.59
2023-03-15T19:48:31.091Z,73.49
2023-03-15T19:51:33.783Z,73.31
2023-03-15T19:54:36.693Z,73.57
2023-03-15T19:57:39.840Z,72.82
2023-03-15T20:00:42.854Z,73.51
2023-03-15T20:03:47.374Z,73.36
2023-03-15T20:06:50.796Z,73.80
2023-03-15T20:09:53.885Z,73.48
2023-03-15T20:12:59.445Z,74.17
2023-03-15T20:16:02.612Z,74.77
2023-03-15T20:19:06.717Z,74.44
2023-03-15T20:22:09.539Z,73.99
2023-03-15T20:25:13.550Z,74.55
2023-03-15T20:28:16.450Z,74.37
2023-03-15T20:31:20.143Z,75.32
2023-03-15T20:34:24.375Z,74.69
2023-03-15T20:37:28.012Z,74.84
2023-03-15T20:40:30.739Z,78.53
2023-03-15T20:43:34.070Z,77.95
2023-03-15T20:46:37.172Z,70.07
2023-03-15T20:49:41.753Z,70.03
2023-03-15T20:52:44.470Z,70.02
2023-03-15T20:55:47.428Z,68.98
2023-03-15T20:58:50.316Z,72.94
2023-03-15T21:01:53.151Z,71.49
2023-03-15T21:04:57.333Z,71.21
2023-03-15T21:08:00.527Z,73.35
2023-03-15T21:11:03.875Z,72.37
2023-03-15T21:14:06.973Z,72.74
2023-03-15T21:17:09.680Z,72.67
2023-03-15T21:20:20.632Z,73.85
2023-03-15T21:23:23.478Z,70.89
2023-03-15T21:26:26.321Z,72.94
2023-03-15T21:29:29.211Z,71.68
2023-03-15T21:32:32.113Z,71.84
2023-03-15T21:35:36.542Z,72.85
2023-03-15T21:38:39.493Z,71.92
2023-03-15T21:41:42.379Z,73.16
2023-03-15T21:44:45.594Z,71.70
2023-03-15T21:47:48.298Z,71.26
2023-03-15T21:50:53.768Z,72.92
2023-03-15T21:53:56.655Z,70.82
2023-03-15T21:56:59.538Z,71.76
2023-03-15T22:00:02.470Z,71.75
2023-03-15T22:03:05.508Z,71.66
2023-03-15T22:06:10.004Z,73.64
2023-03-15T22:09:12.751Z,71.75
2023-03-15T22:12:15.901Z,72.54
2023-03-15T22:15:18.985Z,73.09
2023-03-15T22:18:22.251Z,74.10
2023-03-15T22:21:26.610Z,72.47
2023-03-15T22:24:29.344Z,72.32
2023-03-15T22:27:32.320Z,71.82
2023-03-15T22:30:38.512Z,71.74
2023-03-15T22:33:41.505Z,72.51
2023-03-15T22:36:46.140Z,71.30
2023-03-15T22:39:48.994Z,70.80
2023-03-15T22:42:52.979Z,72.02
2023-03-15T22:45:55.926Z,71.30
2023-03-15T22:48:58.877Z,71.66
2023-03-15T22:52:03.120Z,71.90
2023-03-15T22:55:07.550Z,70.03
2023-03-15T22:58:10.377Z,70.30
2023-03-15T23:01:13.280Z,69.75
2023-03-15T23:04:16.078Z,69.54
2023-03-15T23:07:20.552Z,71.18
2023-03-15T23:10:23.427Z,70.92
2023-03-15T23:13:26.424Z,71.35
2023-03-15T23:16:29.458Z,70.13
2023-03-15T23:19:34.388Z,71.14
2023-03-15T23:22:38.601Z,70.83
2023-03-15T23:25:41.520Z,71.59
2023-03-15T23:28:44.480Z,71.42
2023-03-15T23:31:47.361Z,70.81
2023-03-15T23:34:51.321Z,72.13
2023-03-15T23:37:56.542Z,70.80
2023-03-15T23:41:00.048Z,71.04
2023-03-15T23:44:03.709Z,70.64
2023-03-15T23:47:07.361Z,70.71
2023-03-15T23:50:13.715Z,71.31
2023-03-15T23:53:17.987Z,71.55
2023-03-15T23:56:20.953Z,71.53
2023-03-15T23:59:23.811Z,70.06
